createdAt,value
2023-01-08T05:16:32.064Z,71.39
2023-01-08T05:19:01.519Z,72.20
2023-01-08T05:21:27.970Z,70.85
2023-01-08T05:23:54.409Z,71.47
2023-01-08T05:26:21.137Z,71.90
2023-01-08T05:28:47.715Z,72.18
2023-01-08T05:31:15.374Z,71.42
2023-01-08T05:33:42.096Z,73.42
2023-01-08T05:36:10.566Z,73.15
2023-01-08T05:38:37.778Z,72.75
2023-01-08T05:41:05.094Z,72.54
2023-01-08T05:43:31.962Z,74.26
2023-01-08T05:47:11.178Z,73.64
2023-01-08T05:49:37.636Z,75.32
2023-01-08T05:52:04.353Z,73.25
2023-01-08T05:54:30.883Z,73.00
2023-01-08T05:56:57.454Z,73.47
2023-01-08T05:59:23.985Z,72.99
2023-01-08T06:01:50.483Z,72.01
2023-01-08T06:04:17.147Z,73.09
2023-01-08T06:06:43.698Z,71.04
2023-01-08T06:09:10.208Z,72.10
2023-01-08T06:11:36.663Z,73.19
2023-01-08T06:14:03.261Z,74.54
2023-01-08T06:16:29.708Z,75.78
2023-01-08T06:18:56.175Z,72.92
2023-01-08T06:21:22.658Z,73.25
2023-01-08T06:23:49.119Z,73.86
2023-01-08T06:26:15.608Z,75.42
2023-01-08T06:28:42.086Z,76.85
2023-01-08T06:31:08.579Z,75.04
2023-01-08T06:33:35.048Z,74.83
2023-01-08T06:36:04.578Z,73.42
2023-01-08T06:38:33.789Z,73.81
2023-01-08T06:41:07.363Z,72.35
2023-01-08T06:43:36.262Z,73.95
2023-01-08T06:46:08.574Z,73.64
2023-01-08T06:48:35.686Z,74.45
2023-01-08T06:51:03.113Z,76.33
2023-01-08T06:53:29.603Z,75.49
2023-01-08T06:55:58.505Z,74.29
2023-01-08T06:58:26.536Z,74.15
2023-01-08T07:01:02.306Z,73.92
2023-01-08T07:03:28.940Z,74.79
2023-01-08T07:05:56.429Z,75.61
2023-01-08T07:08:23.029Z,73.85
2023-01-08T07:10:49.575Z,74.81
2023-01-08T07:13:16.085Z,73.61
2023-01-08T07:15:43.420Z,75.31
2023-01-08T07:18:12.085Z,75.08
2023-01-08T07:20:38.770Z,73.74
2023-01-08T07:23:07.994Z,73.27
2023-01-08T07:25:54.910Z,74.55
2023-01-08T07:28:34.303Z,75.66
2023-01-08T07:31:06.172Z,74.47
2023-01-08T07:33:33.374Z,76.26
2023-01-08T07:36:00.115Z,76.85
2023-01-08T07:38:27.456Z,75.67
2023-01-08T07:40:57.632Z,75.20
2023-01-08T07:43:30.031Z,73.78
2023-01-08T07:45:57.712Z,74.43
2023-01-08T07:48:47.818Z,75.45
2023-01-08T07:51:14.580Z,75.55
2023-01-08T07:53:41.174Z,76.61
2023-01-08T07:56:09.904Z,77.11
2023-01-08T07:58:37.003Z,77.45
2023-01-08T08:01:04.563Z,75.99
2023-01-08T08:03:39.006Z,77.04
2023-01-08T08:06:06.656Z,76.75
2023-01-08T08:08:33.315Z,75.91
2023-01-08T08:11:00.405Z,76.51
2023-01-08T08:13:29.684Z,76.81
2023-01-08T08:16:01.657Z,76.44
2023-01-08T08:18:28.285Z,75.36
2023-01-08T08:20:54.886Z,75.89
2023-01-08T08:23:21.407Z,77.21
2023-01-08T08:25:48.119Z,76.92
2023-01-08T08:28:14.573Z,77.15
2023-01-08T08:30:42.638Z,75.52
2023-01-08T08:33:10.072Z,76.78
2023-01-08T08:35:38.419Z,74.67
2023-01-08T08:38:06.001Z,74.38
2023-01-08T08:40:32.576Z,75.62
2023-01-08T08:43:04.561Z,77.69
2023-01-08T08:45:31.126Z,76.78
2023-01-08T08:47:57.752Z,77.34
2023-01-08T08:50:24.504Z,76.91
2023-01-08T08:52:50.997Z,76.49
2023-01-08T08:55:18.085Z,75.87
2023-01-08T08:57:46.536Z,75.76
2023-01-08T09:00:14.538Z,76.75
2023-01-08T09:02:52.337Z,76.30
2023-01-08T09:05:18.904Z,76.62
2023-01-08T09:07:45.378Z,75.78
2023-01-08T09:10:12.077Z,76.47
2023-01-08T09:12:38.759Z,76.33
2023-01-08T09:15:06.000Z,75.70
2023-01-08T09:17:33.996Z,76.14
2023-01-08T09:20:00.494Z,75.43
2023-01-08T09:22:26.990Z,76.63
2023-01-08T09:24:55.067Z,76.75
2023-01-08T09:27:21.563Z,76.70
2023-01-08T09:29:48.043Z,74.85
2023-01-08T09:32:14.829Z,75.30
2023-01-08T09:34:44.227Z,76.98
2023-01-08T09:37:10.809Z,76.26
2023-01-08T09:39:37.413Z,76.03
2023-01-08T09:42:05.641Z,74.68
2023-01-08T09:44:43.138Z,75.67
2023-01-08T09:47:29.580Z,75.91
2023-01-08T09:50:01.340Z,75.30
2023-01-08T09:52:28.257Z,76.61
2023-01-08T09:54:54.888Z,76.52
2023-01-08T09:57:22.350Z,78.24
2023-01-08T09:59:51.128Z,75.05
2023-01-08T10:02:21.847Z,75.13
2023-01-08T10:04:56.432Z,76.85
2023-01-08T10:07:27.360Z,75.29
2023-01-08T10:09:55.219Z,75.50
2023-01-08T10:12:31.248Z,76.22
2023-01-08T10:15:04.897Z,76.36
2023-01-08T10:17:38.105Z,77.43
2023-01-08T10:20:15.029Z,76.66
2023-01-08T10:22:42.163Z,74.39
2023-01-08T10:25:15.280Z,75.97
2023-01-08T10:27:52.295Z,74.45
2023-01-08T10:30:31.269Z,74.51
2023-01-08T10:33:03.611Z,75.08
2023-01-08T10:35:39.485Z,74.60
2023-01-08T10:38:06.373Z,74.64
2023-01-08T10:40:48.549Z,75.33
2023-01-08T10:43:19.385Z,75.79
2023-01-08T10:45:59.876Z,76.88
2023-01-08T10:48:36.987Z,75.47
2023-01-08T10:51:16.974Z,76.56
2023-01-08T10:53:44.771Z,76.68
2023-01-08T10:56:29.393Z,76.41
2023-01-08T10:58:56.779Z,76.15
2023-01-08T11:01:29.458Z,77.08
2023-01-08T11:03:58.892Z,75.24
2023-01-08T11:06:34.267Z,75.85
2023-01-08T11:09:03.950Z,75.09
2023-01-08T11:11:35.341Z,74.97
2023-01-08T11:14:30.786Z,75.18
2023-01-08T11:16:59.027Z,75.38
2023-01-08T11:19:28.915Z,75.83
2023-01-08T11:22:02.838Z,74.25
2023-01-08T11:24:50.423Z,76.04
2023-01-08T11:27:28.583Z,75.87
2023-01-08T11:30:14.173Z,75.23
2023-01-08T11:33:00.574Z,75.67
2023-01-08T11:35:30.219Z,74.80
2023-01-08T11:38:00.060Z,74.49
2023-01-08T11:40:53.247Z,76.03
2023-01-08T11:43:30.627Z,74.80
2023-01-08T11:46:31.500Z,73.12
2023-01-08T11:56:43.729Z,72.69
2023-01-08T11:59:19.386Z,73.44
2023-01-08T12:02:51.336Z,72.53
2023-01-08T12:09:48.938Z,75.43
2023-01-08T12:12:31.575Z,73.73
2023-01-08T12:18:45.857Z,74.62
2023-01-08T12:21:28.875Z,74.18
2023-01-08T12:24:36.969Z,73.01
2023-01-08T12:27:48.389Z,74.16
2023-01-08T12:33:57.297Z,75.60
2023-01-08T12:36:29.903Z,73.99
2023-01-08T12:39:03.201Z,74.15
2023-01-08T12:41:33.842Z,74.09
2023-01-08T12:44:12.350Z,73.98
2023-01-08T12:46:43.305Z,74.83
2023-01-08T12:49:15.981Z,75.59
2023-01-08T12:52:01.483Z,74.88
2023-01-08T12:54:44.656Z,74.85
2023-01-08T12:57:31.908Z,73.09
2023-01-08T13:00:19.962Z,74.55
2023-01-08T13:02:51.946Z,74.05
2023-01-08T13:05:18.692Z,73.51
2023-01-08T13:07:57.011Z,74.12
2023-01-08T13:10:39.433Z,72.71
2023-01-08T13:13:28.241Z,73.50
2023-01-08T13:16:26.282Z,74.13
2023-01-08T13:19:02.709Z,72.38
2023-01-08T13:24:38.993Z,73.16
2023-01-08T13:27:14.930Z,73.96
2023-01-08T13:29:44.781Z,73.46
2023-01-08T13:32:49.464Z,72.50
2023-01-08T13:35:16.388Z,72.81
2023-01-08T13:37:43.993Z,71.32
2023-01-08T13:40:51.906Z,71.71
2023-01-08T13:43:44.901Z,72.74
2023-01-08T13:46:20.274Z,71.65
2023-01-08T13:48:59.387Z,72.16
2023-01-08T13:51:33.651Z,72.16
2023-01-08T13:54:37.180Z,72.59
2023-01-08T13:57:20.141Z,73.06
2023-01-08T14:00:02.249Z,72.53
2023-01-08T14:02:39.635Z,72.62
2023-01-08T14:05:19.339Z,71.49
2023-01-08T14:07:45.958Z,71.80
2023-01-08T14:10:15.313Z,72.06
2023-01-08T14:12:42.661Z,71.92
2023-01-08T14:15:20.901Z,72.40
2023-01-08T14:17:48.360Z,71.70
2023-01-08T14:20:23.514Z,72.09
2023-01-08T14:22:50.415Z,71.75
2023-01-08T14:25:20.287Z,71.62
2023-01-08T14:27:58.514Z,72.03
2023-01-08T14:30:26.259Z,71.06
2023-01-08T14:32:55.257Z,72.94
2023-01-08T14:35:29.228Z,72.99
2023-01-08T14:37:56.247Z,72.89
2023-01-08T14:40:37.049Z,73.01
2023-01-08T14:43:09.869Z,73.39
2023-01-08T14:45:38.500Z,73.00
2023-01-08T14:48:12.498Z,72.91
2023-01-08T14:50:54.420Z,72.63
2023-01-08T14:53:29.033Z,73.31
2023-01-08T14:55:57.703Z,74.11
2023-01-08T14:58:34.484Z,73.03
2023-01-08T15:01:06.022Z,72.23
2023-01-08T15:03:39.454Z,73.11
2023-01-08T15:06:14.338Z,73.86
2023-01-08T15:08:46.236Z,72.23
2023-01-08T15:11:19.205Z,71.42
2023-01-08T15:13:47.957Z,70.88
2023-01-08T15:16:17.440Z,72.63
2023-01-08T15:18:53.932Z,71.43
2023-01-08T15:21:22.520Z,71.20
2023-01-08T15:23:55.099Z,71.73
2023-01-08T15:26:23.199Z,72.21
2023-01-08T15:28:51.818Z,71.57
2023-01-08T15:31:26.634Z,71.25
2023-01-08T15:33:53.314Z,71.85
2023-01-08T15:36:21.279Z,71.90
2023-01-08T15:38:52.961Z,71.25
2023-01-08T15:41:40.502Z,71.05
2023-01-08T15:44:09.790Z,71.11
2023-01-08T15:46:36.280Z,70.87
2023-01-08T15:49:03.260Z,69.84
2023-01-08T15:51:43.648Z,71.24
2023-01-08T15:54:12.604Z,71.73
2023-01-08T15:56:39.701Z,71.51
2023-01-08T15:59:06.398Z,72.59
2023-01-08T16:01:36.371Z,71.35
2023-01-08T16:04:03.078Z,71.35
2023-01-08T16:06:29.584Z,70.32
2023-01-08T16:08:59.856Z,67.84
2023-01-08T16:11:27.095Z,68.68
2023-01-08T16:13:54.403Z,70.33
2023-01-08T16:16:21.622Z,70.67
2023-01-08T16:18:54.017Z,70.87
2023-01-08T16:21:21.332Z,70.65
2023-01-08T16:23:47.850Z,70.62
2023-01-08T16:26:25.674Z,70.10
2023-01-08T16:29:33.723Z,70.59
2023-01-08T16:32:04.487Z,69.09
2023-01-08T16:34:33.705Z,68.83
2023-01-08T16:37:00.249Z,68.49
2023-01-08T16:46:53.634Z,68.40
2023-01-08T16:49:43.857Z,68.42
2023-01-08T16:53:02.633Z,67.30
2023-01-08T16:55:29.235Z,68.96
2023-01-08T16:57:56.084Z,68.08
2023-01-08T17:00:36.060Z,67.61
2023-01-08T17:04:30.585Z,69.86
2023-01-08T17:07:01.151Z,68.44
2023-01-08T17:09:27.923Z,68.27
2023-01-08T17:11:55.547Z,68.68
2023-01-08T17:14:22.197Z,67.24
2023-01-08T17:16:49.155Z,67.64
2023-01-08T17:19:16.483Z,67.60
2023-01-08T17:21:43.748Z,65.77
2023-01-08T17:24:15.734Z,66.74
2023-01-08T17:26:45.151Z,65.37
2023-01-08T17:29:15.371Z,66.24
2023-01-08T17:31:43.091Z,65.68
2023-01-08T17:34:13.824Z,65.42
2023-01-08T17:36:41.080Z,65.51
2023-01-08T17:39:08.170Z,64.35
2023-01-08T17:42:00.979Z,64.88
2023-01-08T17:44:37.255Z,63.98
2023-01-08T17:47:07.059Z,64.01
2023-01-08T17:49:33.853Z,63.24
2023-01-08T17:52:10.598Z,64.01
2023-01-08T17:54:40.225Z,63.25
2023-01-08T17:57:07.242Z,65.85
2023-01-08T17:59:34.049Z,64.88
2023-01-08T18:02:00.713Z,63.64
2023-01-08T18:04:27.415Z,65.71
2023-01-08T18:06:54.004Z,65.23
2023-01-08T18:09:21.669Z,65.78
2023-01-08T18:11:52.422Z,67.03
2023-01-08T18:14:47.850Z,66.48
2023-01-08T18:17:36.373Z,65.15
2023-01-08T18:20:36.550Z,66.42
2023-01-08T18:23:04.445Z,67.15
2023-01-08T18:25:44.387Z,68.21
2023-01-08T18:28:11.025Z,66.21
2023-01-08T18:30:40.493Z,66.87
2023-01-08T18:33:23.167Z,65.44
2023-01-08T18:35:52.304Z,66.37
2023-01-08T18:38:24.169Z,65.42
2023-01-08T18:40:53.198Z,66.18
2023-01-08T18:46:11.217Z,67.05
2023-01-08T18:49:03.679Z,67.67
2023-01-08T18:51:30.230Z,65.81
2023-01-08T18:53:56.853Z,65.52
2023-01-08T18:56:35.567Z,65.28
2023-01-08T18:59:04.735Z,66.71
2023-01-08T19:01:34.254Z,67.62
2023-01-08T19:04:01.561Z,69.35
2023-01-08T19:06:29.056Z,67.98
2023-01-08T19:08:57.979Z,68.66
2023-01-08T19:11:25.591Z,68.54
2023-01-08T19:13:58.596Z,69.52
2023-01-08T19:16:26.005Z,69.17
2023-01-08T19:18:54.144Z,69.91
2023-01-08T19:21:26.368Z,67.88
2023-01-08T19:23:56.996Z,67.75
2023-01-08T19:26:28.048Z,67.22
2023-01-08T19:28:59.543Z,68.42
2023-01-08T19:31:30.411Z,65.61
2023-01-08T19:34:02.881Z,65.52
2023-01-08T19:36:29.628Z,65.38
2023-01-08T19:39:24.958Z,67.31
2023-01-08T19:49:47.762Z,66.78
2023-01-08T19:52:56.062Z,68.12
2023-01-08T19:55:28.653Z,67.75
2023-01-08T19:58:31.294Z,68.24
2023-01-08T20:01:43.318Z,68.73
2023-01-08T20:04:16.126Z,66.27
2023-01-08T20:09:43.950Z,66.40
2023-01-08T20:12:35.790Z,64.55
2023-01-08T20:15:18.392Z,64.48
2023-01-08T20:18:03.131Z,64.49
2023-01-08T20:21:10.178Z,65.85
2023-01-08T20:24:42.237Z,64.01
2023-01-08T20:29:44.385Z,63.64
2023-01-08T20:40:27.008Z,62.63
2023-01-08T20:47:51.650Z,61.76
2023-01-08T20:51:02.930Z,61.24
2023-01-08T21:06:36.717Z,60.70
2023-01-08T21:14:35.624Z,60.97
2023-01-08T21:26:16.027Z,60.34
2023-01-08T21:37:58.954Z,59.70
2023-01-08T21:55:42.174Z,61.59
2023-01-08T21:58:08.754Z,61.47
2023-01-08T22:00:35.376Z,61.22
2023-01-08T22:03:01.821Z,61.29
2023-01-08T22:05:28.252Z,61.31
2023-01-08T22:07:54.781Z,61.52
2023-01-08T22:10:21.257Z,61.69
2023-01-08T22:12:47.800Z,61.67
2023-01-08T22:15:14.417Z,62.37
2023-01-08T22:17:40.891Z,62.22
2023-01-08T22:20:09.710Z,62.84
2023-01-08T22:22:38.410Z,62.29
2023-01-08T22:25:05.422Z,62.02
2023-01-08T22:27:32.078Z,62.71
2023-01-08T22:29:58.521Z,62.24
2023-01-08T22:32:24.945Z,62.41
2023-01-08T22:34:51.489Z,63.00
2023-01-08T22:37:21.543Z,63.14
2023-01-08T22:39:49.068Z,62.76
2023-01-08T22:42:16.792Z,62.33
2023-01-08T22:44:43.396Z,62.30
2023-01-08T22:47:10.008Z,62.13
2023-01-08T22:49:37.656Z,62.02
2023-01-08T22:52:05.237Z,61.92
2023-01-08T22:54:31.741Z,62.75
2023-01-08T22:56:58.252Z,62.64
